Time;durP1;ratioP1;P1;durP2;ratioP2;P2;SDS_P1;SDS_P2;PMS_P1;PMS_P2;Temp;Humidity;BMP_temperature;BMP_pressure;BME280_temperature;BME280_humidity;BME280_pressure;Samples;Min_cycle;Max_cycle;Signal;HPM_P1;HPM_P2
2022/07/01 00:00:13;;;;;;;10.37;9.73;;;16.90;99.90;;;;;;4897218;29;20765;-77
2022/07/01 00:02:41;;;;;;;10.20;9.60;;;16.90;99.90;;;;;;4897108;29;20301;-77
2022/07/01 00:05:08;;;;;;;10.30;9.60;;;16.80;99.90;;;;;;4896585;29;20255;-77
2022/07/01 00:07:45;;;;;;;10.23;9.50;;;16.70;99.90;;;;;;4879927;29;20579;-77
2022/07/01 00:10:12;;;;;;;10.27;9.40;;;16.60;99.90;;;;;;4880373;29;20267;-77
2022/07/01 00:12:38;;;;;;;10.10;9.50;;;16.50;99.90;;;;;;4880168;29;20629;-77
2022/07/01 00:15:07;;;;;;;9.93;9.23;;;16.40;99.90;;;;;;4896608;29;20208;-77
2022/07/01 00:17:34;;;;;;;9.40;8.80;;;16.40;99.90;;;;;;4880172;29;20200;-77
2022/07/01 00:20:03;;;;;;;10.27;9.60;;;16.40;99.90;;;;;;4880069;29;20208;-77
2022/07/01 00:22:30;;;;;;;10.77;10.17;;;16.40;99.90;;;;;;4879908;29;20252;-77
2022/07/01 00:24:57;;;;;;;10.80;10.03;;;16.30;99.90;;;;;;4896454;29;20211;-77
2022/07/01 00:27:23;;;;;;;10.50;9.90;;;16.30;99.90;;;;;;4896801;29;20232;-77
2022/07/01 00:29:50;;;;;;;10.43;9.83;;;16.30;99.90;;;;;;4879935;29;20298;-77
2022/07/01 00:32:17;;;;;;;10.90;10.30;;;16.30;99.90;;;;;;4880224;29;20573;-77
2022/07/01 00:34:44;;;;;;;10.70;10.00;;;16.30;99.90;;;;;;4879969;29;20663;-77
2022/07/01 00:37:12;;;;;;;10.30;9.60;;;16.20;99.90;;;;;;4896868;29;20257;-77
2022/07/01 00:39:39;;;;;;;10.17;9.40;;;16.20;99.90;;;;;;4896968;29;20203;-77
2022/07/01 00:42:06;;;;;;;10.50;9.80;;;16.20;99.90;;;;;;4875840;29;20223;-77
2022/07/01 00:44:33;;;;;;;10.30;9.60;;;16.30;99.90;;;;;;4880589;29;20705;-78
2022/07/01 00:47:04;;;;;;;10.03;9.43;;;16.30;99.90;;;;;;4898446;29;20212;-78
2022/07/01 00:49:31;;;;;;;9.73;9.03;;;16.20;99.90;;;;;;4893515;29;20627;-78
2022/07/01 00:51:58;;;;;;;9.70;9.20;;;16.10;99.90;;;;;;4881144;29;20207;-78
2022/07/01 00:54:27;;;;;;;9.50;8.90;;;16.10;99.90;;;;;;4900910;29;20232;-78
2022/07/01 00:56:56;;;;;;;9.90;9.30;;;16.10;99.90;;;;;;4901437;29;20211;-78
2022/07/01 00:59:23;;;;;;;9.70;9.10;;;16.00;99.90;;;;;;4884488;29;20701;-78
2022/07/01 01:01:51;;;;;;;9.87;9.07;;;16.00;99.90;;;;;;4900822;29;20221;-78
2022/07/01 01:04:18;;;;;;;10.00;9.30;;;16.00;99.90;;;;;;4900669;29;20266;-78
2022/07/01 01:06:45;;;;;;;9.40;8.80;;;15.90;99.90;;;;;;4900764;29;20261;-77
2022/07/01 01:09:11;;;;;;;9.30;8.70;;;15.90;99.90;;;;;;4884217;29;20207;-78
2022/07/01 01:11:40;;;;;;;8.70;8.20;;;15.90;99.90;;;;;;4883777;29;20259;-77
2022/07/01 01:14:07;;;;;;;8.80;8.20;;;15.90;99.90;;;;;;4883924;29;20289;-78
2022/07/01 01:16:35;;;;;;;9.50;8.90;;;15.90;99.90;;;;;;4884018;29;20228;-78
2022/07/01 01:19:05;;;;;;;9.70;9.00;;;15.90;99.90;;;;;;4883973;29;20294;-77
2022/07/01 01:21:33;;;;;;;10.03;9.33;;;15.90;99.90;;;;;;4900155;29;20216;-77
2022/07/01 01:24:00;;;;;;;10.10;9.50;;;15.90;99.90;;;;;;4900138;29;20286;-77
2022/07/01 01:26:27;;;;;;;9.80;9.30;;;15.90;99.90;;;;;;4883471;29;20209;-77
2022/07/01 01:28:54;;;;;;;9.83;9.20;;;15.80;99.90;;;;;;4883566;29;20204;-77
2022/07/01 01:31:30;;;;;;;9.60;9.00;;;15.70;99.90;;;;;;4876474;29;20211;-77
2022/07/01 01:33:57;;;;;;;9.43;8.90;;;15.70;99.90;;;;;;4882793;29;20314;-77
2022/07/01 01:36:24;;;;;;;9.50;8.80;;;15.60;99.90;;;;;;4883628;29;20216;-77
2022/07/01 01:38:53;;;;;;;9.80;9.20;;;15.60;99.90;;;;;;4900176;29;20211;-77
2022/07/01 01:41:19;;;;;;;9.80;9.20;;;15.60;99.90;;;;;;4899942;29;20311;-77
2022/07/01 01:43:47;;;;;;;9.40;8.80;;;15.70;99.90;;;;;;4882774;29;20220;-77
2022/07/01 01:46:13;;;;;;;9.37;8.77;;;15.70;99.90;;;;;;4900255;29;20204;-77
2022/07/01 01:48:40;;;;;;;9.40;8.90;;;15.70;99.90;;;;;;4882751;29;20209;-77
2022/07/01 01:51:07;;;;;;;9.50;8.90;;;15.70;99.90;;;;;;4899927;29;20255;-77
2022/07/01 01:53:34;;;;;;;10.10;9.50;;;15.70;99.90;;;;;;4882445;29;20609;-78
2022/07/01 01:56:02;;;;;;;9.57;8.87;;;15.70;99.90;;;;;;4882803;29;20264;-77
2022/07/01 01:58:29;;;;;;;10.00;9.20;;;15.70;99.90;;;;;;4882941;29;20557;-78
2022/07/01 02:00:55;;;;;;;9.70;9.20;;;15.60;99.90;;;;;;4899474;29;20254;-77
2022/07/01 02:03:22;;;;;;;10.40;9.60;;;15.60;99.90;;;;;;4899528;29;20566;-77
2022/07/01 02:05:50;;;;;;;10.20;9.60;;;15.70;99.90;;;;;;4882152;29;20271;-77
2022/07/01 02:08:16;;;;;;;9.37;8.87;;;15.60;99.90;;;;;;4882474;29;20298;-78
2022/07/01 02:10:44;;;;;;;10.10;9.50;;;15.70;99.90;;;;;;4882579;29;20211;-77
2022/07/01 02:13:12;;;;;;;10.00;9.40;;;15.60;99.90;;;;;;4874814;29;20223;-78
2022/07/01 02:15:39;;;;;;;10.00;9.30;;;15.60;99.90;;;;;;4882634;29;20674;-78
2022/07/01 02:18:06;;;;;;;10.07;9.50;;;15.60;99.90;;;;;;4882326;29;20207;-77
2022/07/01 02:20:33;;;;;;;9.63;9.13;;;15.50;99.90;;;;;;4882465;29;20195;-78
2022/07/01 02:23:00;;;;;;;9.50;9.00;;;15.50;99.90;;;;;;4882030;29;20256;-77
2022/07/01 02:25:27;;;;;;;10.30;9.70;;;15.40;99.90;;;;;;4882078;29;20201;-77
2022/07/01 02:27:54;;;;;;;10.30;9.60;;;15.40;99.90;;;;;;4882126;29;20260;-78
2022/07/01 02:30:22;;;;;;;10.70;10.10;;;15.30;99.90;;;;;;4882022;29;20203;-77
2022/07/01 02:32:49;;;;;;;10.90;10.30;;;15.30;99.90;;;;;;4898775;29;20220;-77
2022/07/01 02:35:16;;;;;;;9.63;9.03;;;15.20;99.90;;;;;;4898328;29;20200;-77
2022/07/01 02:37:43;;;;;;;9.60;9.10;;;15.20;99.90;;;;;;4881523;29;20277;-77
2022/07/01 02:40:12;;;;;;;10.30;9.60;;;15.20;99.90;;;;;;4896816;29;20228;-76
2022/07/01 02:42:39;;;;;;;10.43;9.50;;;15.10;99.90;;;;;;4881308;29;20238;-78
2022/07/01 02:45:08;;;;;;;10.40;9.80;;;15.00;99.90;;;;;;4898399;29;20261;-77
2022/07/01 02:47:37;;;;;;;11.67;10.70;;;15.10;99.90;;;;;;4881625;29;20210;-77
2022/07/01 02:50:04;;;;;;;10.17;9.57;;;15.10;99.90;;;;;;4881912;29;20252;-77
2022/07/01 02:52:32;;;;;;;9.80;9.30;;;15.00;99.90;;;;;;4898053;29;20253;-77
2022/07/01 02:54:58;;;;;;;10.00;9.50;;;15.00;99.90;;;;;;4872784;29;20249;-77
2022/07/01 02:57:25;;;;;;;11.23;10.63;;;15.00;99.90;;;;;;4892639;29;20206;-77
2022/07/01 02:59:52;;;;;;;10.37;9.77;;;14.90;99.90;;;;;;4879920;29;20244;-77
2022/07/01 03:02:20;;;;;;;10.00;9.40;;;14.90;99.90;;;;;;4881082;29;20283;-77
2022/07/01 03:04:50;;;;;;;10.90;10.30;;;14.90;99.90;;;;;;4897861;29;20229;-77
2022/07/01 03:07:17;;;;;;;11.00;10.40;;;14.80;99.90;;;;;;4898317;29;20260;-77
2022/07/01 03:09:44;;;;;;;10.50;9.90;;;14.80;99.90;;;;;;4898186;29;20196;-77
2022/07/01 03:12:28;;;;;;;11.00;10.30;;;14.80;99.90;;;;;;4898301;29;20199;-77
2022/07/01 03:14:56;;;;;;;10.80;10.20;;;14.90;99.90;;;;;;4897691;29;20197;-79
2022/07/01 03:17:23;;;;;;;10.60;10.10;;;14.90;99.90;;;;;;4879907;29;20201;-77
2022/07/01 03:19:52;;;;;;;10.83;10.13;;;14.80;99.90;;;;;;4880088;29;20210;-78
2022/07/01 03:22:20;;;;;;;11.33;10.73;;;14.90;99.90;;;;;;4879673;29;20210;-79
2022/07/01 03:24:47;;;;;;;11.53;10.93;;;14.90;99.90;;;;;;4895994;29;20222;-78
2022/07/01 03:27:14;;;;;;;12.23;11.53;;;14.90;99.90;;;;;;4897072;29;20198;-78
2022/07/01 03:29:41;;;;;;;11.70;11.00;;;14.90;99.90;;;;;;4895473;29;20674;-78
2022/07/01 03:32:09;;;;;;;11.53;10.93;;;14.90;99.90;;;;;;4896941;29;20256;-78
2022/07/01 03:34:36;;;;;;;11.30;10.70;;;14.90;99.90;;;;;;4879754;29;20332;-78
2022/07/01 03:37:05;;;;;;;11.00;10.40;;;14.90;99.90;;;;;;4880069;29;20281;-81
2022/07/01 03:39:32;;;;;;;10.80;10.20;;;14.90;99.90;;;;;;4880178;29;20677;-78
2022/07/01 03:41:59;;;;;;;11.10;10.50;;;14.90;99.90;;;;;;4897183;29;20274;-78
2022/07/01 03:44:25;;;;;;;11.17;10.57;;;14.80;99.90;;;;;;4879809;29;20656;-78
2022/07/01 03:46:52;;;;;;;10.80;10.20;;;14.90;99.90;;;;;;4896906;29;20211;-78
2022/07/01 03:49:19;;;;;;;11.10;10.50;;;14.90;99.90;;;;;;4879888;29;20735;-78
2022/07/01 03:51:46;;;;;;;11.60;10.90;;;14.90;99.90;;;;;;4896712;29;20228;-78
2022/07/01 03:54:32;;;;;;;11.60;11.00;;;15.00;99.90;;;;;;4880693;29;20221;-79
2022/07/01 03:57:00;;;;;;;11.60;11.00;;;14.90;99.90;;;;;;4896757;29;20284;-77
2022/07/01 03:59:27;;;;;;;11.50;10.90;;;15.00;99.90;;;;;;4880296;29;20201;-77
2022/07/01 04:01:54;;;;;;;12.00;11.40;;;14.90;99.90;;;;;;4896715;29;20228;-77
2022/07/01 04:04:21;;;;;;;12.20;11.50;;;14.90;99.90;;;;;;4879959;29;20758;-77
2022/07/01 04:06:48;;;;;;;11.53;10.93;;;15.00;99.90;;;;;;4897436;29;20264;-79
2022/07/01 04:09:18;;;;;;;11.53;10.93;;;15.00;99.90;;;;;;4882836;29;20686;-79
2022/07/01 04:11:45;;;;;;;11.80;11.20;;;14.90;99.90;;;;;;4882130;29;20668;-79
2022/07/01 04:14:13;;;;;;;12.00;11.40;;;14.90;99.90;;;;;;4897421;29;20602;-79
2022/07/01 04:16:40;;;;;;;11.70;11.10;;;14.90;99.90;;;;;;4899296;29;20193;-80
2022/07/01 04:19:08;;;;;;;11.87;11.27;;;15.00;99.90;;;;;;4881876;29;20273;-79
2022/07/01 04:24:22;;;;;;;12.50;11.80;;;15.00;99.90;;;;;;4891417;29;20223;-78
2022/07/01 04:26:49;;;;;;;12.50;11.80;;;15.00;99.90;;;;;;4898092;29;20237;-79
2022/07/01 04:29:16;;;;;;;12.30;11.50;;;15.00;99.90;;;;;;4901236;29;20200;-78
2022/07/01 04:31:43;;;;;;;12.10;11.40;;;14.90;99.90;;;;;;4896567;29;20210;-78
2022/07/01 04:34:11;;;;;;;12.17;11.53;;;14.90;99.90;;;;;;4877041;29;20224;-79
2022/07/01 04:36:38;;;;;;;12.20;11.50;;;14.90;99.90;;;;;;4901743;29;20290;-77
2022/07/01 04:39:05;;;;;;;12.37;11.67;;;14.90;99.90;;;;;;4884791;29;20212;-78
2022/07/01 04:44:19;;;;;;;11.80;11.10;;;14.90;99.90;;;;;;4898011;29;20221;-79
2022/07/01 04:46:46;;;;;;;11.47;10.87;;;14.90;99.90;;;;;;4901267;29;20307;-77
2022/07/01 04:49:13;;;;;;;11.87;10.97;;;14.90;99.90;;;;;;4884805;29;20622;-78
2022/07/01 04:51:40;;;;;;;11.47;10.87;;;14.90;99.90;;;;;;4901758;29;20249;-79
2022/07/01 04:54:08;;;;;;;11.60;11.00;;;14.90;99.90;;;;;;4883459;29;20228;-77
2022/07/01 04:56:38;;;;;;;11.80;11.10;;;14.90;99.90;;;;;;4884833;29;20262;-78
2022/07/01 04:59:05;;;;;;;11.60;11.00;;;14.90;99.90;;;;;;4884059;29;20212;-78
2022/07/01 05:01:32;;;;;;;12.00;11.30;;;14.90;99.90;;;;;;4900886;29;20227;-77
2022/07/01 05:03:59;;;;;;;12.00;11.30;;;14.90;99.90;;;;;;4901624;29;20304;-78
2022/07/01 05:06:26;;;;;;;11.50;10.80;;;14.90;99.90;;;;;;4900700;29;20232;-78
2022/07/01 05:08:53;;;;;;;12.20;11.50;;;14.90;99.90;;;;;;4894662;29;20256;-79
2022/07/01 05:11:20;;;;;;;11.90;11.20;;;14.90;99.90;;;;;;4883795;29;20560;-78
2022/07/01 05:13:48;;;;;;;11.67;11.07;;;14.90;99.90;;;;;;4883269;29;20626;-78
2022/07/01 05:16:15;;;;;;;11.80;11.20;;;14.80;99.90;;;;;;4883731;29;20210;-77
2022/07/01 05:24:11;;;;;;;11.80;11.20;;;14.80;99.90;;;;;;4901449;29;20223;-79
2022/07/01 05:26:38;;;;;;;12.50;11.80;;;14.90;99.90;;;;;;4908452;29;20196;-78
2022/07/01 05:29:06;;;;;;;12.60;11.90;;;14.90;99.90;;;;;;4885631;29;20213;-78
2022/07/01 05:31:33;;;;;;;12.30;11.60;;;14.90;99.90;;;;;;4885059;29;20206;-78
2022/07/01 05:34:00;;;;;;;12.63;11.93;;;14.90;99.90;;;;;;4883911;29;20714;-78
2022/07/01 05:36:27;;;;;;;12.40;11.70;;;14.90;99.90;;;;;;4896842;29;20200;-78
2022/07/01 05:38:54;;;;;;;12.00;11.40;;;14.90;99.90;;;;;;4898445;29;20252;-78
2022/07/01 05:41:21;;;;;;;11.63;11.03;;;14.90;99.90;;;;;;4884194;29;20641;-79
2022/07/01 05:43:48;;;;;;;12.00;11.30;;;14.90;99.90;;;;;;4883965;29;20229;-78
2022/07/01 05:46:16;;;;;;;11.50;10.80;;;15.00;99.90;;;;;;4905973;29;20248;-78
2022/07/01 05:48:43;;;;;;;11.63;11.03;;;15.00;99.90;;;;;;4884114;29;20736;-78
2022/07/01 05:51:10;;;;;;;11.50;10.90;;;15.00;99.90;;;;;;4893534;29;20203;-78
2022/07/01 05:53:36;;;;;;;11.87;11.17;;;14.90;99.90;;;;;;4900078;29;20293;-78
2022/07/01 05:56:03;;;;;;;11.63;11.03;;;14.90;99.90;;;;;;4900460;29;20228;-78
2022/07/01 05:58:30;;;;;;;11.87;11.17;;;14.90;99.90;;;;;;4898690;29;20675;-79
2022/07/01 06:00:57;;;;;;;11.63;11.03;;;14.90;99.90;;;;;;4900486;29;20209;-77
2022/07/01 06:03:25;;;;;;;11.53;10.93;;;14.90;99.90;;;;;;4900104;29;20295;-78
2022/07/01 06:05:52;;;;;;;11.30;10.60;;;14.90;99.90;;;;;;4883769;29;20612;-78
2022/07/01 06:08:18;;;;;;;11.20;10.50;;;14.90;99.90;;;;;;4884494;29;20213;-79
2022/07/01 06:10:45;;;;;;;11.07;10.47;;;14.80;99.90;;;;;;4884282;29;20208;-78
2022/07/01 06:13:12;;;;;;;10.90;10.30;;;14.90;99.90;;;;;;4901146;29;20546;-78
2022/07/01 06:15:39;;;;;;;11.60;11.00;;;14.90;99.90;;;;;;4900837;29;20831;-78
2022/07/01 06:18:06;;;;;;;11.80;11.20;;;14.90;99.90;;;;;;4883753;29;20216;-77
2022/07/01 06:20:34;;;;;;;11.80;11.10;;;14.90;99.90;;;;;;4883750;29;20260;-78
2022/07/01 06:23:00;;;;;;;11.77;11.07;;;14.90;99.90;;;;;;4883987;29;20675;-78
2022/07/01 06:25:27;;;;;;;11.47;10.87;;;14.90;99.90;;;;;;4883451;29;20569;-78
2022/07/01 06:27:54;;;;;;;11.80;11.20;;;15.00;99.90;;;;;;4900682;29;20263;-78
2022/07/01 06:30:21;;;;;;;11.40;10.80;;;15.00;99.90;;;;;;4894756;29;20605;-78
2022/07/01 06:32:48;;;;;;;11.90;11.20;;;15.00;99.90;;;;;;4897653;29;20955;-79
2022/07/01 06:35:14;;;;;;;11.50;10.90;;;15.00;99.90;;;;;;4880533;29;20193;-79
2022/07/01 06:37:43;;;;;;;11.07;10.47;;;15.00;99.90;;;;;;4900621;29;20206;-79
2022/07/01 06:40:10;;;;;;;11.53;10.93;;;15.10;99.90;;;;;;4883749;29;20260;-79
2022/07/01 06:42:37;;;;;;;11.20;10.60;;;15.20;99.90;;;;;;4902242;29;20242;-79
2022/07/01 06:45:04;;;;;;;12.00;11.20;;;15.30;99.90;;;;;;4884928;29;20264;-79
2022/07/01 06:47:31;;;;;;;11.50;10.90;;;15.40;99.90;;;;;;4901425;29;20245;-79
2022/07/01 06:49:58;;;;;;;11.70;11.10;;;15.60;99.90;;;;;;4885411;29;20209;-79
2022/07/01 06:52:25;;;;;;;11.67;10.97;;;15.60;99.90;;;;;;4901998;29;20215;-79
2022/07/01 06:54:53;;;;;;;12.00;11.30;;;15.60;99.90;;;;;;4885031;29;20212;-79
2022/07/01 06:57:20;;;;;;;11.67;11.07;;;15.60;99.90;;;;;;4901948;29;20209;-78
2022/07/01 06:59:48;;;;;;;11.60;11.00;;;15.50;99.90;;;;;;4901787;29;20669;-79
2022/07/01 07:02:15;;;;;;;11.43;10.83;;;15.50;99.90;;;;;;4901357;29;20670;-79
2022/07/01 07:04:42;;;;;;;11.60;10.97;;;15.40;99.90;;;;;;4884067;29;20599;-78
2022/07/01 07:07:08;;;;;;;11.13;10.53;;;15.40;99.90;;;;;;4901423;29;20213;-79
2022/07/01 07:09:35;;;;;;;11.30;10.70;;;15.40;99.90;;;;;;4884475;29;20569;-79
2022/07/01 07:12:04;;;;;;;11.70;11.10;;;15.30;99.90;;;;;;4882600;29;20261;-79
2022/07/01 07:14:31;;;;;;;11.57;10.97;;;15.30;99.90;;;;;;4902717;29;20272;-80
2022/07/01 07:16:57;;;;;;;12.40;11.60;;;15.40;99.90;;;;;;4905394;29;20624;-80
2022/07/01 07:19:24;;;;;;;11.87;11.27;;;15.40;99.90;;;;;;4888448;29;20227;-80
2022/07/01 07:21:51;;;;;;;11.70;11.10;;;15.40;99.90;;;;;;4886202;29;20269;-80
2022/07/01 07:24:18;;;;;;;11.50;10.90;;;15.40;99.90;;;;;;4884291;29;20749;-80
2022/07/01 07:26:45;;;;;;;11.40;10.80;;;15.40;99.90;;;;;;4900319;29;20204;-79
2022/07/01 07:29:13;;;;;;;11.90;11.20;;;15.40;99.90;;;;;;4901036;29;20240;-79
2022/07/01 07:31:40;;;;;;;11.50;10.90;;;15.50;99.90;;;;;;4893513;29;20469;-78
2022/07/01 07:34:07;;;;;;;11.40;10.70;;;15.50;99.90;;;;;;4900368;29;20301;-79
2022/07/01 07:36:34;;;;;;;10.73;10.13;;;15.50;99.90;;;;;;4883451;29;20570;-79
2022/07/01 07:39:00;;;;;;;10.10;9.60;;;15.50;99.90;;;;;;4883527;29;20201;-79
2022/07/01 07:41:27;;;;;;;10.20;9.60;;;15.60;99.90;;;;;;4883629;29;20202;-79
2022/07/01 07:43:54;;;;;;;10.70;10.10;;;15.60;99.90;;;;;;4883453;29;20607;-78
2022/07/01 07:46:22;;;;;;;9.30;8.80;;;15.50;99.90;;;;;;4883647;29;20668;-79
2022/07/01 07:48:49;;;;;;;9.27;8.77;;;15.50;99.90;;;;;;4883558;29;20208;-79
2022/07/01 07:51:18;;;;;;;9.80;9.20;;;15.50;99.90;;;;;;4884105;29;20201;-79
2022/07/01 07:53:45;;;;;;;10.80;10.20;;;15.60;99.90;;;;;;4899854;29;20608;-80
2022/07/01 07:56:12;;;;;;;9.93;9.33;;;15.60;99.90;;;;;;4883555;29;20207;-79
2022/07/01 07:58:41;;;;;;;10.50;9.97;;;15.60;99.90;;;;;;4883792;29;20219;-79
2022/07/01 08:01:09;;;;;;;10.50;9.90;;;15.60;99.90;;;;;;4900963;29;20283;-79
2022/07/01 08:03:38;;;;;;;10.00;9.50;;;15.50;99.90;;;;;;4900344;29;20229;-79
2022/07/01 08:06:04;;;;;;;9.77;9.27;;;15.50;99.90;;;;;;4883901;29;20285;-79
2022/07/01 08:08:32;;;;;;;9.87;9.37;;;15.50;99.90;;;;;;4901111;29;20208;-79
2022/07/01 08:10:59;;;;;;;10.17;9.57;;;15.50;99.90;;;;;;4901154;29;20657;-79
2022/07/01 08:13:26;;;;;;;9.70;9.20;;;15.60;99.90;;;;;;4884019;29;20387;-79
2022/07/01 08:15:52;;;;;;;10.20;9.70;;;15.70;99.90;;;;;;4901162;29;20660;-79
2022/07/01 08:18:20;;;;;;;10.80;10.10;;;15.70;99.90;;;;;;4901532;29;20249;-79
2022/07/01 08:20:52;;;;;;;10.10;9.50;;;15.70;99.90;;;;;;4884104;29;20206;-79
2022/07/01 08:23:19;;;;;;;10.10;9.60;;;15.70;99.90;;;;;;4894270;29;20250;-79
2022/07/01 08:25:46;;;;;;;10.27;9.57;;;15.70;99.90;;;;;;4883987;29;20440;-79
2022/07/01 08:28:12;;;;;;;10.30;9.70;;;15.80;99.90;;;;;;4901238;29;20201;-79
2022/07/01 08:30:41;;;;;;;10.73;10.13;;;15.80;99.90;;;;;;4881324;29;20202;-79
2022/07/01 08:33:08;;;;;;;10.37;9.87;;;15.70;99.90;;;;;;4884626;29;20223;-79
2022/07/01 08:35:35;;;;;;;11.03;10.43;;;15.70;99.90;;;;;;4883949;29;20669;-79
2022/07/01 08:38:04;;;;;;;10.43;9.93;;;15.60;99.90;;;;;;4901162;29;20239;-79
2022/07/01 08:40:32;;;;;;;10.90;10.30;;;15.50;99.90;;;;;;4884000;29;20195;-79
2022/07/01 08:43:00;;;;;;;11.10;10.50;;;15.50;99.90;;;;;;4885095;29;20265;-78
2022/07/01 08:45:29;;;;;;;10.43;9.93;;;15.60;99.90;;;;;;4902669;29;20233;-78
2022/07/01 08:48:00;;;;;;;9.80;9.20;;;15.60;99.90;;;;;;4903057;29;20232;-79
2022/07/01 08:50:27;;;;;;;8.67;8.23;;;15.60;99.90;;;;;;4885691;29;20204;-78
2022/07/01 08:52:54;;;;;;;10.20;9.70;;;15.60;99.90;;;;;;4902638;29;20773;-78
2022/07/01 08:55:23;;;;;;;10.80;10.20;;;15.60;99.90;;;;;;4902318;29;20466;-78
2022/07/01 08:57:51;;;;;;;10.33;9.83;;;15.60;99.90;;;;;;4886706;29;20234;-78
2022/07/01 09:00:18;;;;;;;10.20;9.60;;;15.70;99.90;;;;;;4904164;29;20255;-78
2022/07/01 09:02:53;;;;;;;10.10;9.60;;;15.60;99.90;;;;;;4904020;29;20671;-79
2022/07/01 09:05:20;;;;;;;9.97;9.43;;;15.70;99.90;;;;;;4887504;29;20215;-79
2022/07/01 09:07:48;;;;;;;10.60;10.00;;;15.60;99.90;;;;;;4904116;29;20689;-79
2022/07/01 09:10:18;;;;;;;10.70;10.10;;;15.60;99.90;;;;;;4904121;29;20269;-78
2022/07/01 09:12:47;;;;;;;10.17;9.67;;;15.70;99.90;;;;;;4902874;29;20211;-78
2022/07/01 09:15:26;;;;;;;9.60;9.10;;;15.60;99.90;;;;;;4880496;29;20750;-79
2022/07/01 09:17:54;;;;;;;10.70;10.10;;;15.60;99.90;;;;;;4905249;29;20205;-78
2022/07/01 09:20:28;;;;;;;11.13;10.53;;;15.60;99.90;;;;;;4908498;29;20218;-78
2022/07/01 09:23:03;;;;;;;10.80;10.20;;;15.70;99.90;;;;;;4903602;29;20724;-78
2022/07/01 09:25:32;;;;;;;11.20;10.60;;;15.60;99.90;;;;;;4891558;29;20210;-82
2022/07/01 09:28:08;;;;;;;10.70;10.10;;;15.60;99.90;;;;;;4904192;29;20200;-78
2022/07/01 09:30:35;;;;;;;10.73;10.13;;;15.60;99.90;;;;;;4900243;29;20260;-78
2022/07/01 09:33:10;;;;;;;10.50;9.90;;;15.50;99.90;;;;;;4881976;29;20230;-80
2022/07/01 09:35:37;;;;;;;10.60;10.00;;;15.40;99.90;;;;;;4899399;29;20263;-78
2022/07/01 09:38:06;;;;;;;10.77;10.03;;;15.30;99.90;;;;;;4899707;29;20233;-79
2022/07/01 09:40:50;;;;;;;11.00;10.20;;;15.40;99.90;;;;;;4883125;29;20299;-78
2022/07/01 09:43:20;;;;;;;10.67;10.00;;;15.30;99.90;;;;;;4892200;29;20838;-78
2022/07/01 09:45:55;;;;;;;10.53;9.93;;;15.30;99.90;;;;;;4900282;29;20205;-78
2022/07/01 09:48:23;;;;;;;10.57;9.97;;;15.20;99.90;;;;;;4882089;29;20210;-78
2022/07/01 09:50:51;;;;;;;10.50;9.90;;;15.20;99.90;;;;;;4882552;29;20264;-78
2022/07/01 09:53:18;;;;;;;10.73;10.10;;;15.40;99.90;;;;;;4901658;29;20245;-78
2022/07/01 09:55:45;;;;;;;10.47;9.87;;;15.40;99.90;;;;;;4899269;29;20268;-78
2022/07/01 09:58:12;;;;;;;10.40;9.80;;;15.60;99.90;;;;;;4899417;29;20720;-78
2022/07/01 10:00:40;;;;;;;10.33;9.63;;;15.70;99.90;;;;;;4882295;29;20285;-78
2022/07/01 10:03:08;;;;;;;10.50;9.80;;;15.70;99.90;;;;;;4899402;29;20220;-78
2022/07/01 10:05:48;;;;;;;10.47;9.87;;;15.70;99.90;;;;;;4888079;29;20319;-79
2022/07/01 10:08:37;;;;;;;10.50;9.90;;;15.70;99.90;;;;;;4893373;29;20204;-78
2022/07/01 10:11:20;;;;;;;10.50;9.97;;;15.90;99.90;;;;;;4899439;29;20654;-78
2022/07/01 10:13:48;;;;;;;10.20;9.70;;;16.00;99.90;;;;;;4889034;29;20224;-78
2022/07/01 10:16:18;;;;;;;9.80;9.30;;;16.10;99.90;;;;;;4899073;29;20279;-79
2022/07/01 10:18:45;;;;;;;10.03;9.47;;;16.30;99.90;;;;;;4895470;29;20619;-79
2022/07/01 10:21:28;;;;;;;11.73;11.13;;;16.50;99.90;;;;;;4898875;29;20204;-78
2022/07/01 10:24:12;;;;;;;10.60;10.00;;;16.90;99.90;;;;;;4897208;29;20231;-78
2022/07/01 10:26:39;;;;;;;11.40;10.80;;;17.20;99.90;;;;;;4882141;29;20669;-79
2022/07/01 10:29:07;;;;;;;11.57;10.97;;;17.50;99.90;;;;;;4883900;29;20209;-79
2022/07/01 10:31:38;;;;;;;5.20;4.97;;;17.50;99.90;;;;;;4903084;29;20204;-80
2022/07/01 10:34:05;;;;;;;11.40;10.80;;;17.50;99.90;;;;;;4902608;29;20298;-79
2022/07/01 10:36:33;;;;;;;2.40;2.30;;;17.50;99.90;;;;;;4896457;29;20208;-80
2022/07/01 10:39:17;;;;;;;2.40;2.30;;;17.70;99.90;;;;;;4902001;29;20750;-79
2022/07/01 10:41:57;;;;;;;2.30;2.20;;;17.70;99.90;;;;;;4886224;29;20665;-79
2022/07/01 10:44:26;;;;;;;4.70;4.50;;;17.60;99.90;;;;;;4878178;29;20272;-80
2022/07/01 10:46:58;;;;;;;3.70;3.50;;;17.40;99.90;;;;;;4885505;29;20246;-79
2022/07/01 10:49:54;;;;;;;6.80;6.40;;;17.30;99.90;;;;;;4879761;29;20216;-79
2022/07/01 10:52:21;;;;;;;10.60;10.07;;;17.10;99.90;;;;;;4898599;29;20652;-80
2022/07/01 10:54:49;;;;;;;10.03;9.43;;;17.10;99.90;;;;;;4885229;29;20292;-79
2022/07/01 10:57:27;;;;;;;10.83;10.23;;;17.10;99.90;;;;;;4901918;29;20634;-79
2022/07/01 10:59:57;;;;;;;10.80;10.20;;;17.10;99.90;;;;;;4901416;29;20624;-79
2022/07/01 11:02:27;;;;;;;10.27;9.67;;;17.10;99.90;;;;;;4884865;29;20291;-79
2022/07/01 11:04:56;;;;;;;9.47;8.87;;;17.20;99.90;;;;;;4884627;29;20228;-79
2022/07/01 11:07:26;;;;;;;10.57;9.97;;;17.20;99.90;;;;;;4901767;29;20205;-79
2022/07/01 11:09:53;;;;;;;11.47;10.77;;;17.30;99.90;;;;;;4883215;29;20264;-79
2022/07/01 11:12:23;;;;;;;8.87;8.37;;;17.30;99.90;;;;;;4883872;29;20201;-79
2022/07/01 11:14:50;;;;;;;11.20;10.60;;;17.40;99.90;;;;;;4883457;29;20221;-79
2022/07/01 11:17:16;;;;;;;9.47;8.90;;;17.60;99.90;;;;;;4901160;29;20204;-79
2022/07/01 11:19:48;;;;;;;2.37;2.27;;;17.70;99.90;;;;;;4900580;29;20205;-79
2022/07/01 11:22:18;;;;;;;2.70;2.50;;;17.70;99.90;;;;;;4876709;29;20209;-79
2022/07/01 11:24:45;;;;;;;2.53;2.33;;;17.80;99.90;;;;;;4878043;29;20284;-79
2022/07/01 11:27:12;;;;;;;2.70;2.50;;;18.10;99.90;;;;;;4883440;29;20266;-79
2022/07/01 11:29:39;;;;;;;2.40;2.30;;;18.40;99.90;;;;;;4900108;29;20201;-79
2022/07/01 11:32:07;;;;;;;5.50;5.20;;;18.40;99.90;;;;;;4900254;29;20601;-79
2022/07/01 11:34:35;;;;;;;5.30;5.00;;;18.40;99.90;;;;;;4882381;29;20229;-81
2022/07/01 11:40:04;;;;;;;4.87;4.57;;;18.70;99.90;;;;;;4893797;29;20205;-79
2022/07/01 11:42:31;;;;;;;6.60;6.30;;;19.20;99.90;;;;;;4899704;29;20210;-81
2022/07/01 11:44:58;;;;;;;7.93;7.50;;;19.50;99.90;;;;;;4881981;29;20320;-80
2022/07/01 11:47:26;;;;;;;6.40;6.00;;;19.50;99.90;;;;;;4882188;29;20268;-79
2022/07/01 11:49:54;;;;;;;6.43;5.93;;;19.60;99.90;;;;;;4880644;29;20301;-78
2022/07/01 11:52:23;;;;;;;9.07;8.53;;;19.40;99.90;;;;;;4898696;29;20255;-79
2022/07/01 11:54:51;;;;;;;8.07;7.67;;;19.50;99.90;;;;;;4898454;29;20288;-79
2022/07/01 11:57:21;;;;;;;6.53;6.20;;;19.80;99.90;;;;;;4898586;29;20255;-78
2022/07/01 11:59:50;;;;;;;3.60;3.40;;;20.00;99.90;;;;;;4882870;29;20216;-78
2022/07/01 12:02:18;;;;;;;9.03;8.53;;;20.10;99.90;;;;;;4898640;29;20644;-78
2022/07/01 12:04:46;;;;;;;9.00;8.50;;;20.30;99.90;;;;;;4878566;29;20869;-79
2022/07/01 12:07:15;;;;;;;6.93;6.63;;;20.30;99.90;;;;;;4898031;29;20201;-79
2022/07/01 12:09:43;;;;;;;7.27;6.87;;;20.40;99.90;;;;;;4881016;29;20979;-77
2022/07/01 12:12:16;;;;;;;7.60;7.20;;;20.50;99.90;;;;;;4889191;29;20204;-78
2022/07/01 12:14:51;;;;;;;7.20;6.80;;;20.40;99.90;;;;;;4878128;29;20224;-78
2022/07/01 12:17:18;;;;;;;6.10;5.70;;;20.60;99.90;;;;;;4889996;29;20211;-79
2022/07/01 12:19:47;;;;;;;7.57;7.07;;;20.70;99.90;;;;;;4880506;29;20208;-79
2022/07/01 12:22:18;;;;;;;8.00;7.50;;;21.20;99.90;;;;;;4897708;29;20224;-78
2022/07/01 12:24:46;;;;;;;3.00;2.80;;;21.20;99.90;;;;;;4880804;29;20243;-78
2022/07/01 12:27:14;;;;;;;4.33;4.10;;;20.80;99.90;;;;;;4897547;29;20667;-79
2022/07/01 12:29:53;;;;;;;2.70;2.60;;;21.00;99.90;;;;;;4897475;29;20620;-78
2022/07/01 12:32:22;;;;;;;4.83;4.63;;;21.20;99.90;;;;;;4875537;29;20249;-79
2022/07/01 12:34:51;;;;;;;3.50;2.40;;;21.30;99.90;;;;;;4881493;29;20221;-78
2022/07/01 12:37:19;;;;;;;9.03;8.53;;;21.10;99.90;;;;;;4899519;29;20550;-80
2022/07/01 12:39:49;;;;;;;10.00;9.50;;;20.90;99.90;;;;;;4898461;29;20197;-78
2022/07/01 12:42:28;;;;;;;9.73;9.13;;;21.10;99.90;;;;;;4890846;29;20240;-78
2022/07/01 12:44:56;;;;;;;2.20;2.10;;;21.20;99.90;;;;;;4897512;29;20284;-78
2022/07/01 12:47:27;;;;;;;1.93;1.93;;;21.10;99.90;;;;;;4896095;29;20641;-79
2022/07/01 12:50:09;;;;;;;6.80;6.40;;;21.30;99.90;;;;;;4900117;29;20223;-79
2022/07/01 12:52:36;;;;;;;5.07;4.63;;;21.50;99.90;;;;;;4892221;29;20364;-78
2022/07/01 12:55:16;;;;;;;2.20;2.00;;;21.60;99.90;;;;;;4900834;29;20220;-78